Time;durP1;ratioP1;P1;durP2;ratioP2;P2;SDS_P1;SDS_P2;PMS_P1;PMS_P2;Temp;Humidity;BMP_temperature;BMP_pressure;BME280_temperature;BME280_humidity;BME280_pressure;Samples;Min_cycle;Max_cycle;Signal;HPM_P1;HPM_P2
2023/04/14 00:00:11;;;;;;;0.00;0.00;;;6.40;78.60;;;;;;4949692;29;20456;-66
2023/04/14 00:02:37;;;;;;;0.00;0.00;;;6.30;78.60;;;;;;4938482;28;20059;-66
2023/04/14 00:05:03;;;;;;;0.00;0.00;;;6.30;78.60;;;;;;4935329;29;20043;-66
2023/04/14 00:07:29;;;;;;;0.00;0.00;;;6.30;78.60;;;;;;4935537;29;20063;-66
2023/04/14 00:09:54;;;;;;;0.00;0.00;;;6.30;78.60;;;;;;4935457;29;20047;-65
2023/04/14 00:12:20;;;;;;;0.00;0.00;;;6.20;78.60;;;;;;4945739;29;20048;-66
2023/04/14 00:14:46;;;;;;;0.00;0.00;;;6.20;78.60;;;;;;4937086;29;20476;-66
2023/04/14 00:17:11;;;;;;;0.00;0.00;;;6.20;78.50;;;;;;4937967;29;20183;-67
2023/04/14 00:19:37;;;;;;;0.00;0.00;;;6.20;78.40;;;;;;4935208;29;20043;-66
2023/04/14 00:22:02;;;;;;;0.00;0.00;;;6.20;78.50;;;;;;4942585;29;20057;-67
2023/04/14 00:24:28;;;;;;;0.00;0.00;;;6.20;78.60;;;;;;4954358;29;20086;-66
2023/04/14 00:26:53;;;;;;;0.00;0.00;;;6.20;78.50;;;;;;4953810;29;20492;-66
2023/04/14 00:29:19;;;;;;;0.00;0.00;;;6.20;78.50;;;;;;4954148;29;20054;-66
2023/04/14 00:31:45;;;;;;;0.00;0.00;;;6.10;78.50;;;;;;4968337;28;20067;-67
2023/04/14 00:34:10;;;;;;;0.00;0.00;;;6.10;78.50;;;;;;4950014;29;20039;-66
2023/04/14 00:36:36;;;;;;;0.00;0.00;;;6.10;78.50;;;;;;4953286;29;20050;-66
2023/04/14 00:39:03;;;;;;;0.00;0.00;;;6.10;78.70;;;;;;4953815;29;20082;-67
2023/04/14 00:41:33;;;;;;;0.00;0.00;;;6.10;78.70;;;;;;4952477;29;20119;-66
2023/04/14 00:44:00;;;;;;;0.00;0.00;;;6.10;78.70;;;;;;4953949;29;20070;-66
2023/04/14 00:46:26;;;;;;;0.00;0.00;;;6.10;78.80;;;;;;4953328;28;20051;-67
2023/04/14 00:48:55;;;;;;;0.00;0.00;;;6.00;78.90;;;;;;4953629;29;20114;-66
2023/04/14 00:51:22;;;;;;;0.00;0.00;;;6.10;78.90;;;;;;4952213;29;20062;-67
2023/04/14 00:53:50;;;;;;;0.00;0.00;;;6.00;78.90;;;;;;4953448;29;20576;-66
2023/04/14 00:56:15;;;;;;;0.00;0.00;;;6.10;78.90;;;;;;4938610;29;20572;-67
2023/04/14 00:58:41;;;;;;;0.00;0.00;;;6.10;78.90;;;;;;4938856;29;20059;-67
2023/04/14 01:01:07;;;;;;;0.00;0.00;;;6.00;79.00;;;;;;4954441;28;20059;-66
2023/04/14 01:03:35;;;;;;;0.00;0.00;;;6.00;79.00;;;;;;4972604;28;20511;-66
2023/04/14 01:06:00;;;;;;;0.00;0.00;;;6.00;79.10;;;;;;4972457;28;20074;-67
2023/04/14 01:08:26;;;;;;;0.00;0.00;;;6.00;79.10;;;;;;4972585;28;20526;-66
2023/04/14 01:11:03;;;;;;;0.00;0.00;;;5.90;79.00;;;;;;4971192;28;20084;-66
2023/04/14 01:13:40;;;;;;;0.00;0.00;;;5.90;79.10;;;;;;4972057;28;20096;-66
2023/04/14 01:16:17;;;;;;;0.00;0.00;;;5.90;79.00;;;;;;4957991;28;20075;-66
2023/04/14 01:19:23;;;;;;;0.00;0.00;;;5.90;79.00;;;;;;4952977;28;20145;-66
2023/04/14 01:21:51;;;;;;;0.00;0.00;;;5.70;79.00;;;;;;4936752;29;20054;-67
2023/04/14 01:24:38;;;;;;;0.00;0.00;;;5.70;79.00;;;;;;4953318;28;20055;-67
2023/04/14 01:27:17;;;;;;;0.00;0.00;;;5.70;79.00;;;;;;4953725;28;20143;-66
2023/04/14 01:29:52;;;;;;;0.00;0.00;;;5.60;79.00;;;;;;4953163;28;20039;-66
2023/04/14 01:32:22;;;;;;;0.00;0.00;;;5.60;79.00;;;;;;4962997;28;20070;-67
2023/04/14 01:34:54;;;;;;;0.00;0.00;;;5.60;78.80;;;;;;4965718;28;20057;-66
2023/04/14 01:37:33;;;;;;;0.00;0.00;;;5.40;78.70;;;;;;4954578;28;20106;-66
2023/04/14 01:40:04;;;;;;;0.00;0.00;;;5.40;78.90;;;;;;4935522;29;20043;-66
2023/04/14 01:42:34;;;;;;;0.00;0.00;;;5.40;79.10;;;;;;4947584;28;20043;-66
2023/04/14 01:45:07;;;;;;;0.00;0.00;;;5.40;79.20;;;;;;4972017;28;20484;-66
2023/04/14 01:47:35;;;;;;;0.00;0.00;;;5.30;79.30;;;;;;4954381;28;20035;-67
2023/04/14 01:50:02;;;;;;;0.00;0.00;;;5.30;79.30;;;;;;4971912;28;20510;-67
2023/04/14 01:52:29;;;;;;;0.00;0.00;;;5.40;79.30;;;;;;4960028;28;20054;-66
2023/04/14 01:54:57;;;;;;;0.00;0.00;;;5.40;79.50;;;;;;4952342;28;20062;-67
2023/04/14 01:57:25;;;;;;;0.35;0.35;;;5.30;79.60;;;;;;4952283;28;20059;-66
2023/04/14 01:59:54;;;;;;;0.00;0.00;;;5.30;79.50;;;;;;4970396;28;20062;-66
2023/04/14 02:02:21;;;;;;;0.00;0.00;;;5.30;79.70;;;;;;4961415;28;20518;-67
2023/04/14 02:04:47;;;;;;;0.00;0.00;;;5.40;79.70;;;;;;4935129;29;20086;-67
2023/04/14 02:07:14;;;;;;;0.00;0.00;;;5.30;79.80;;;;;;4950338;28;20042;-67
2023/04/14 02:09:42;;;;;;;0.00;0.00;;;5.30;79.70;;;;;;4971516;28;20049;-66
2023/04/14 02:12:10;;;;;;;0.00;0.00;;;5.30;79.80;;;;;;4969960;28;20097;-66
2023/04/14 02:14:39;;;;;;;0.00;0.00;;;5.20;80.00;;;;;;4971199;28;20424;-66
2023/04/14 02:17:08;;;;;;;0.00;0.00;;;5.20;79.90;;;;;;4969746;28;20051;-67
2023/04/14 02:19:35;;;;;;;0.08;0.08;;;5.20;79.70;;;;;;4971394;28;20054;-66
2023/04/14 02:22:02;;;;;;;0.00;0.00;;;5.10;79.60;;;;;;4963836;28;20807;-66
2023/04/14 02:24:27;;;;;;;0.00;0.00;;;5.10;79.50;;;;;;4961611;28;20122;-66
2023/04/14 02:27:09;;;;;;;0.00;0.00;;;5.00;79.30;;;;;;4970135;28;20122;-66
2023/04/14 02:29:36;;;;;;;0.00;0.00;;;5.00;79.60;;;;;;4971002;28;20496;-66
2023/04/14 02:32:04;;;;;;;0.00;0.00;;;4.90;79.50;;;;;;4969675;28;20058;-67
2023/04/14 02:34:34;;;;;;;0.00;0.00;;;4.90;79.60;;;;;;4960674;28;20070;-67
2023/04/14 02:37:02;;;;;;;0.00;0.00;;;5.00;79.70;;;;;;4951640;28;20117;-67
2023/04/14 02:39:37;;;;;;;0.00;0.00;;;5.00;79.70;;;;;;4951389;28;20058;-67
2023/04/14 02:42:11;;;;;;;0.00;0.00;;;4.90;80.00;;;;;;4955359;28;20049;-67
2023/04/14 02:44:48;;;;;;;0.03;0.03;;;4.90;80.00;;;;;;4962126;28;20058;-66
2023/04/14 02:47:27;;;;;;;0.00;0.00;;;4.90;80.20;;;;;;4951623;28;20118;-66
2023/04/14 02:49:55;;;;;;;0.00;0.00;;;4.90;80.40;;;;;;4951710;28;20051;-66
2023/04/14 02:52:25;;;;;;;0.03;0.03;;;4.90;80.10;;;;;;4962284;28;20556;-66
2023/04/14 02:54:52;;;;;;;0.00;0.00;;;4.90;79.90;;;;;;4969385;28;20039;-66
2023/04/14 02:57:19;;;;;;;0.00;0.00;;;4.90;80.10;;;;;;4968956;28;20117;-66
2023/04/14 02:59:46;;;;;;;0.00;0.00;;;4.90;80.00;;;;;;4970348;28;20409;-66
2023/04/14 03:02:12;;;;;;;0.00;0.00;;;4.80;80.00;;;;;;4961759;28;20039;-67
2023/04/14 03:04:39;;;;;;;0.00;0.00;;;4.80;80.10;;;;;;4951475;28;20055;-66
2023/04/14 03:07:07;;;;;;;0.00;0.00;;;4.80;80.20;;;;;;4951215;28;20091;-66
2023/04/14 03:09:34;;;;;;;0.00;0.00;;;4.80;80.30;;;;;;4968144;28;20047;-66
2023/04/14 03:12:02;;;;;;;0.00;0.00;;;4.80;80.10;;;;;;4939448;28;20035;-66
2023/04/14 03:14:29;;;;;;;0.00;0.00;;;4.80;80.10;;;;;;4951135;29;20130;-66
2023/04/14 03:16:56;;;;;;;0.00;0.00;;;4.80;80.10;;;;;;4957231;28;20043;-66
2023/04/14 03:19:22;;;;;;;0.00;0.00;;;4.80;80.00;;;;;;4969278;28;20047;-66
2023/04/14 03:21:53;;;;;;;0.00;0.00;;;4.70;80.10;;;;;;4965263;28;20118;-67
2023/04/14 03:24:23;;;;;;;0.00;0.00;;;4.70;80.20;;;;;;4960634;28;20130;-66
2023/04/14 03:27:20;;;;;;;0.00;0.00;;;4.70;80.20;;;;;;4939527;28;20053;-66
2023/04/14 03:29:50;;;;;;;0.00;0.00;;;4.70;80.20;;;;;;4953056;28;20062;-66
2023/04/14 03:32:17;;;;;;;0.00;0.00;;;4.70;80.20;;;;;;4963066;28;20417;-66
2023/04/14 03:34:47;;;;;;;0.10;0.10;;;4.70;80.10;;;;;;4967659;28;20537;-67
2023/04/14 03:37:16;;;;;;;0.00;0.00;;;4.70;80.00;;;;;;4953567;28;20051;-67
2023/04/14 03:39:44;;;;;;;0.00;0.00;;;4.70;80.00;;;;;;4971073;28;20055;-67
2023/04/14 03:42:11;;;;;;;0.00;0.00;;;4.60;80.00;;;;;;4957343;28;20846;-66
2023/04/14 03:44:38;;;;;;;0.00;0.00;;;4.60;80.00;;;;;;4955002;28;20035;-66
2023/04/14 03:47:06;;;;;;;0.00;0.00;;;4.60;80.00;;;;;;4954598;28;20055;-67
2023/04/14 03:49:38;;;;;;;0.00;0.00;;;4.60;80.10;;;;;;4922475;28;20043;-66
2023/04/14 03:52:07;;;;;;;0.10;0.10;;;4.50;80.10;;;;;;4954996;28;20043;-67
2023/04/14 03:54:35;;;;;;;0.00;0.00;;;4.60;80.10;;;;;;4921981;28;20071;-67
2023/04/14 03:57:05;;;;;;;0.00;0.00;;;4.60;80.30;;;;;;4954644;28;20051;-66
2023/04/14 03:59:31;;;;;;;0.00;0.00;;;4.60;80.40;;;;;;4954811;28;20505;-68
2023/04/14 04:01:57;;;;;;;0.00;0.00;;;4.60;80.30;;;;;;4952079;28;20067;-67
2023/04/14 04:04:23;;;;;;;0.00;0.00;;;4.50;80.20;;;;;;4972812;28;20090;-66
2023/04/14 04:06:50;;;;;;;0.00;0.00;;;4.60;80.40;;;;;;4973839;28;20110;-66
2023/04/14 04:09:18;;;;;;;0.00;0.00;;;4.60;80.60;;;;;;4956182;28;20038;-68
2023/04/14 04:11:46;;;;;;;0.00;0.00;;;4.60;80.60;;;;;;4967188;28;20051;-67
2023/04/14 04:14:14;;;;;;;0.00;0.00;;;4.60;80.60;;;;;;4972090;28;20087;-67
2023/04/14 04:16:42;;;;;;;0.00;0.00;;;4.60;80.60;;;;;;4972351;28;20047;-66
2023/04/14 04:19:10;;;;;;;0.00;0.00;;;4.60;80.60;;;;;;4967851;28;20043;-67
2023/04/14 04:21:39;;;;;;;0.00;0.00;;;4.60;80.70;;;;;;4954512;29;20047;-66
2023/04/14 04:24:06;;;;;;;0.00;0.00;;;4.60;80.90;;;;;;4962357;28;20054;-66
2023/04/14 04:26:33;;;;;;;0.00;0.00;;;4.60;80.90;;;;;;4956675;28;20047;-67
2023/04/14 04:28:59;;;;;;;0.00;0.00;;;4.70;80.80;;;;;;4969636;28;20058;-67
2023/04/14 04:31:27;;;;;;;0.00;0.00;;;4.70;80.80;;;;;;4967972;28;20049;-67
2023/04/14 04:33:53;;;;;;;0.00;0.00;;;4.70;80.90;;;;;;4973060;28;20787;-66
2023/04/14 04:36:20;;;;;;;0.00;0.00;;;4.70;80.90;;;;;;4947256;29;20374;-66
2023/04/14 04:38:48;;;;;;;0.00;0.00;;;4.70;80.80;;;;;;4953620;28;20039;-66
2023/04/14 04:41:24;;;;;;;0.00;0.00;;;4.70;80.80;;;;;;4954064;28;20110;-66
2023/04/14 04:43:49;;;;;;;0.00;0.00;;;4.70;80.90;;;;;;4937452;29;20047;-67
2023/04/14 04:46:24;;;;;;;0.00;0.00;;;4.70;80.90;;;;;;4953600;28;20050;-67
2023/04/14 04:48:52;;;;;;;0.03;0.03;;;4.70;81.00;;;;;;4956743;28;20035;-66
2023/04/14 04:51:18;;;;;;;0.00;0.00;;;4.80;81.00;;;;;;4970864;28;20043;-66
2023/04/14 04:53:43;;;;;;;0.00;0.00;;;4.80;81.00;;;;;;4960075;28;20488;-66
2023/04/14 04:56:09;;;;;;;0.00;0.00;;;4.80;81.10;;;;;;4971669;28;20063;-65
2023/04/14 04:58:34;;;;;;;0.00;0.00;;;4.90;81.10;;;;;;4963473;28;20411;-65
2023/04/14 05:01:07;;;;;;;0.00;0.00;;;4.90;81.10;;;;;;4964708;28;20390;-65
2023/04/14 05:03:33;;;;;;;0.00;0.00;;;4.90;81.00;;;;;;4960654;28;20049;-66
2023/04/14 05:05:58;;;;;;;0.00;0.00;;;4.90;81.00;;;;;;4961983;28;20419;-66
2023/04/14 05:08:24;;;;;;;0.00;0.00;;;4.90;81.00;;;;;;4956953;28;20049;-68
2023/04/14 05:10:49;;;;;;;0.00;0.00;;;4.90;81.00;;;;;;4932963;28;20046;-66
2023/04/14 05:13:15;;;;;;;0.00;0.00;;;5.00;80.90;;;;;;4971920;28;20035;-66
2023/04/14 05:15:41;;;;;;;0.00;0.00;;;5.00;80.90;;;;;;4967155;28;20496;-66
2023/04/14 05:18:06;;;;;;;0.00;0.00;;;4.90;80.80;;;;;;4962701;28;20142;-66
2023/04/14 05:20:32;;;;;;;0.00;0.00;;;5.00;80.90;;;;;;4963903;28;20051;-66
2023/04/14 05:22:58;;;;;;;0.00;0.00;;;4.90;81.00;;;;;;4971423;28;20051;-66
2023/04/14 05:25:23;;;;;;;0.00;0.00;;;5.00;81.00;;;;;;4964167;28;20039;-66
2023/04/14 05:27:49;;;;;;;0.00;0.00;;;5.00;81.00;;;;;;4962296;28;20087;-66
2023/04/14 05:30:15;;;;;;;0.00;0.00;;;5.10;81.10;;;;;;4970320;28;20093;-66
2023/04/14 05:32:40;;;;;;;0.00;0.00;;;5.10;81.00;;;;;;4959224;28;20087;-66
2023/04/14 05:35:07;;;;;;;0.00;0.00;;;5.10;81.30;;;;;;4968284;28;20042;-65
2023/04/14 05:37:33;;;;;;;0.00;0.00;;;5.10;81.50;;;;;;4961587;28;20062;-66
2023/04/14 05:39:58;;;;;;;0.10;0.10;;;5.20;81.50;;;;;;4954550;28;20039;-65
2023/04/14 05:42:24;;;;;;;0.00;0.00;;;5.30;81.40;;;;;;4968153;28;20108;-65
2023/04/14 05:44:49;;;;;;;0.00;0.00;;;5.30;81.40;;;;;;4970561;28;20046;-67
2023/04/14 05:47:15;;;;;;;0.00;0.00;;;5.30;81.50;;;;;;4953541;28;20047;-66
2023/04/14 05:49:40;;;;;;;0.00;0.00;;;5.30;81.60;;;;;;4932266;28;20050;-66
2023/04/14 05:52:06;;;;;;;0.00;0.00;;;5.40;81.70;;;;;;4963330;28;20050;-66
2023/04/14 05:54:31;;;;;;;0.00;0.00;;;5.40;81.80;;;;;;4967036;28;20046;-66
2023/04/14 05:56:57;;;;;;;0.00;0.00;;;5.50;81.70;;;;;;4965516;28;20050;-66
2023/04/14 05:59:23;;;;;;;0.00;0.00;;;5.60;81.60;;;;;;4966657;28;20109;-66
2023/04/14 06:01:48;;;;;;;0.00;0.00;;;5.60;81.50;;;;;;4952619;28;20276;-64
2023/04/14 06:04:14;;;;;;;0.00;0.00;;;5.70;81.60;;;;;;4946952;28;20656;-64
2023/04/14 06:06:40;;;;;;;0.00;0.00;;;5.70;81.60;;;;;;4965871;28;20512;-64
2023/04/14 06:09:05;;;;;;;0.00;0.00;;;5.70;81.60;;;;;;4951640;28;20451;-64
2023/04/14 06:11:31;;;;;;;0.00;0.00;;;5.70;81.60;;;;;;4963436;28;20058;-64
2023/04/14 06:13:57;;;;;;;0.00;0.00;;;5.80;81.50;;;;;;4962837;28;20081;-66
2023/04/14 06:16:22;;;;;;;0.00;0.00;;;5.80;81.50;;;;;;4966954;28;20070;-62
2023/04/14 06:18:48;;;;;;;0.00;0.00;;;5.90;81.60;;;;;;4929691;28;20058;-63
2023/04/14 06:21:13;;;;;;;0.00;0.00;;;6.00;81.80;;;;;;4969425;28;20073;-63
2023/04/14 06:23:39;;;;;;;0.00;0.00;;;6.00;81.90;;;;;;4966521;28;20119;-63
2023/04/14 06:26:05;;;;;;;0.00;0.00;;;6.10;82.10;;;;;;4951047;28;20423;-63
2023/04/14 06:28:31;;;;;;;0.00;0.00;;;6.00;82.20;;;;;;4955929;28;20050;-63
2023/04/14 06:30:56;;;;;;;0.00;0.00;;;6.10;82.10;;;;;;4959817;28;20042;-63
2023/04/14 06:33:22;;;;;;;0.00;0.00;;;6.20;82.10;;;;;;4966341;28;20075;-63
2023/04/14 06:35:48;;;;;;;0.00;0.00;;;6.30;82.20;;;;;;4966381;28;20141;-63
2023/04/14 06:38:14;;;;;;;0.00;0.00;;;6.30;82.30;;;;;;4970295;28;20126;-63
2023/04/14 06:40:39;;;;;;;0.00;0.00;;;6.40;82.40;;;;;;4955630;28;20094;-62
2023/04/14 06:43:09;;;;;;;0.00;0.00;;;6.50;82.20;;;;;;4950827;29;20079;-63
2023/04/14 06:45:35;;;;;;;0.00;0.00;;;6.50;82.30;;;;;;4951131;29;20091;-62
2023/04/14 06:48:01;;;;;;;0.00;0.00;;;6.60;82.80;;;;;;4950232;29;20047;-62
2023/04/14 06:50:26;;;;;;;0.00;0.00;;;6.60;82.80;;;;;;4951303;29;20062;-63
2023/04/14 06:52:52;;;;;;;0.00;0.00;;;6.60;83.00;;;;;;4962659;28;20047;-63
2023/04/14 06:55:17;;;;;;;0.00;0.00;;;6.70;82.60;;;;;;4969401;28;20065;-62
2023/04/14 06:57:43;;;;;;;0.00;0.00;;;6.70;82.50;;;;;;4963970;28;20040;-63
2023/04/14 07:00:09;;;;;;;0.00;0.00;;;6.80;82.20;;;;;;4949435;29;20487;-63
2023/04/14 07:02:35;;;;;;;0.10;0.10;;;6.90;81.90;;;;;;4951069;29;20086;-63
2023/04/14 07:05:01;;;;;;;0.00;0.00;;;6.90;82.20;;;;;;4951060;28;20087;-64
2023/04/14 07:07:26;;;;;;;0.00;0.00;;;7.00;82.20;;;;;;4950752;28;20046;-63
2023/04/14 07:09:52;;;;;;;0.00;0.00;;;7.10;82.30;;;;;;4956078;28;20051;-63
2023/04/14 07:12:17;;;;;;;0.00;0.00;;;7.20;82.10;;;;;;4970547;28;20057;-63
2023/04/14 07:14:49;;;;;;;0.00;0.00;;;7.20;82.30;;;;;;4970116;28;20122;-64
2023/04/14 07:17:15;;;;;;;;;;;7.30;82.30;;;;;;4981676;28;20102;-63
2023/04/14 07:19:41;;;;;;;0.00;0.00;;;7.40;82.30;;;;;;4961374;28;19926;-64
2023/04/14 07:22:07;;;;;;;0.00;0.00;;;7.60;82.90;;;;;;4950641;29;20047;-63
2023/04/14 07:24:33;;;;;;;0.00;0.00;;;7.60;82.70;;;;;;4946401;28;20440;-63
2023/04/14 07:26:58;;;;;;;0.00;0.00;;;7.70;82.60;;;;;;4982248;28;20043;-63
2023/04/14 07:29:26;;;;;;;0.10;0.10;;;7.80;82.40;;;;;;4988762;28;20133;-63
2023/04/14 07:31:51;;;;;;;0.00;0.00;;;7.90;82.70;;;;;;4987996;28;20061;-63
2023/04/14 07:34:18;;;;;;;0.00;0.00;;;7.90;82.30;;;;;;4989473;28;20034;-64
2023/04/14 07:36:44;;;;;;;0.00;0.00;;;8.00;82.10;;;;;;4975418;28;20047;-63
2023/04/14 07:39:10;;;;;;;0.00;0.00;;;8.10;82.10;;;;;;4969848;28;20039;-63
2023/04/14 07:41:35;;;;;;;0.00;0.00;;;8.20;82.00;;;;;;4969714;28;20039;-64
2023/04/14 07:44:01;;;;;;;0.00;0.00;;;8.20;81.80;;;;;;4969809;28;20663;-63
2023/04/14 07:46:27;;;;;;;0.00;0.00;;;8.30;81.70;;;;;;4973301;28;20492;-63
2023/04/14 07:48:52;;;;;;;0.00;0.00;;;8.40;81.60;;;;;;4989395;28;20045;-64
2023/04/14 07:51:18;;;;;;;0.00;0.00;;;8.40;81.50;;;;;;4989474;28;20046;-64
2023/04/14 07:53:44;;;;;;;0.00;0.00;;;8.50;81.30;;;;;;4989093;28;20411;-63
2023/04/14 07:56:10;;;;;;;0.00;0.00;;;8.60;81.40;;;;;;4989226;28;20078;-64
2023/04/14 07:58:36;;;;;;;0.00;0.00;;;8.70;81.30;;;;;;4989162;28;20491;-64
2023/04/14 08:01:03;;;;;;;0.00;0.00;;;8.80;81.20;;;;;;4988670;28;20104;-63
2023/04/14 08:03:29;;;;;;;0.00;0.00;;;8.90;80.90;;;;;;4981460;28;20043;-65
2023/04/14 08:05:55;;;;;;;1.65;1.55;;;9.00;80.60;;;;;;4969962;28;20444;-62
2023/04/14 08:08:20;;;;;;;0.00;0.00;;;9.00;80.00;;;;;;4970269;28;20093;-64
2023/04/14 08:10:46;;;;;;;0.10;0.10;;;9.10;79.60;;;;;;4969237;28;20047;-63
2023/04/14 08:13:11;;;;;;;0.10;0.10;;;9.10;79.40;;;;;;4957090;28;20040;-64
2023/04/14 08:15:37;;;;;;;0.00;0.00;;;9.10;79.10;;;;;;4950425;28;20405;-63
2023/04/14 08:18:03;;;;;;;0.00;0.00;;;9.20;78.80;;;;;;4950458;29;20500;-63
2023/04/14 08:20:28;;;;;;;0.00;0.00;;;9.20;77.70;;;;;;4917725;28;20472;-63
2023/04/14 08:22:55;;;;;;;0.00;0.00;;;9.30;78.00;;;;;;4949692;28;20097;-63
2023/04/14 08:25:20;;;;;;;0.00;0.00;;;9.40;78.20;;;;;;4953761;28;20058;-64
2023/04/14 08:27:46;;;;;;;0.75;0.65;;;9.50;78.10;;;;;;4953566;29;20043;-63
2023/04/14 08:30:12;;;;;;;0.00;0.00;;;9.60;77.80;;;;;;4937435;28;20050;-63
2023/04/14 08:32:37;;;;;;;0.00;0.00;;;9.60;77.80;;;;;;4967500;28;20047;-64
2023/04/14 08:35:03;;;;;;;0.00;0.00;;;9.70;77.60;;;;;;4992256;28;20122;-64
2023/04/14 08:37:29;;;;;;;0.03;0.03;;;9.80;77.30;;;;;;4986814;28;20039;-63
2023/04/14 08:39:55;;;;;;;1.38;0.90;;;9.80;76.80;;;;;;4972865;28;20057;-64
2023/04/14 08:42:20;;;;;;;0.10;0.10;;;9.90;76.70;;;;;;4972868;28;20049;-64
2023/04/14 08:44:47;;;;;;;0.00;0.00;;;10.00;76.80;;;;;;4972590;28;20070;-63
2023/04/14 08:47:14;;;;;;;0.00;0.00;;;10.00;76.40;;;;;;4972564;28;20054;-64
2023/04/14 08:49:44;;;;;;;0.00;0.00;;;10.10;76.40;;;;;;4967466;28;20058;-63
2023/04/14 08:52:11;;;;;;;22.67;1.75;;;10.10;75.50;;;;;;4959454;28;20489;-63
2023/04/14 08:54:39;;;;;;;0.17;0.17;;;10.20;74.90;;;;;;4944180;28;20088;-64
2023/04/14 08:57:08;;;;;;;0.52;0.52;;;10.20;73.50;;;;;;4953117;28;20480;-64
2023/04/14 08:59:34;;;;;;;0.43;0.43;;;10.30;73.90;;;;;;4970458;28;20058;-63
2023/04/14 09:02:00;;;;;;;0.17;0.17;;;10.40;73.80;;;;;;4972591;28;20518;-63
2023/04/14 09:04:27;;;;;;;0.10;0.10;;;10.50;74.10;;;;;;4972670;28;20043;-64
2023/04/14 09:06:55;;;;;;;0.40;0.40;;;10.50;73.90;;;;;;4972343;28;20050;-64
2023/04/14 09:09:21;;;;;;;0.65;0.65;;;10.60;73.30;;;;;;4972345;28;20422;-64
2023/04/14 09:11:47;;;;;;;1.40;0.75;;;10.60;73.20;;;;;;4953757;28;20043;-64
2023/04/14 09:14:13;;;;;;;0.32;0.32;;;10.60;71.60;;;;;;4953320;29;20464;-64
2023/04/14 09:16:39;;;;;;;27.95;1.17;;;10.80;72.70;;;;;;4935831;28;20071;-64
2023/04/14 09:19:06;;;;;;;0.30;0.30;;;10.80;72.00;;;;;;4972401;28;20133;-64
2023/04/14 09:21:32;;;;;;;0.40;0.40;;;10.90;72.50;;;;;;4970755;28;20057;-69
2023/04/14 09:23:58;;;;;;;0.17;0.17;;;11.00;72.00;;;;;;4969852;28;20098;-67
2023/04/14 09:26:26;;;;;;;0.00;0.00;;;11.20;72.70;;;;;;4947285;28;20129;-63
2023/04/14 09:28:52;;;;;;;0.10;0.10;;;11.50;72.90;;;;;;4951632;28;20051;-64
2023/04/14 09:31:19;;;;;;;2.08;1.58;;;11.50;70.30;;;;;;4952430;28;20047;-63
2023/04/14 09:33:49;;;;;;;0.00;0.00;;;11.60;70.90;;;;;;4952422;28;20051;-63
2023/04/14 09:36:22;;;;;;;0.00;0.00;;;11.60;69.50;;;;;;4950569;28;20066;-62
2023/04/14 09:38:49;;;;;;;0.00;0.00;;;11.60;69.40;;;;;;4952209;28;20091;-63
2023/04/14 09:41:30;;;;;;;0.00;0.00;;;11.60;65.60;;;;;;4935773;28;20419;-63
2023/04/14 09:44:06;;;;;;;0.00;0.00;;;11.60;65.50;;;;;;4952690;29;20039;-63
2023/04/14 09:46:31;;;;;;;0.00;0.00;;;11.60;66.40;;;;;;4952615;29;20098;-63
2023/04/14 09:48:58;;;;;;;0.00;0.00;;;11.60;65.50;;;;;;4952542;28;20539;-63
2023/04/14 09:51:27;;;;;;;0.00;0.00;;;11.70;66.30;;;;;;4952419;28;20086;-63
2023/04/14 09:53:53;;;;;;;0.00;0.00;;;11.80;67.20;;;;;;4952373;28;20047;-62
2023/04/14 09:56:20;;;;;;;0.00;0.00;;;11.80;66.90;;;;;;4952476;29;20131;-63
2023/04/14 09:58:47;;;;;;;0.00;0.00;;;11.90;66.40;;;;;;4951172;28;20074;-63
2023/04/14 10:01:18;;;;;;;0.00;0.00;;;11.90;64.30;;;;;;4949359;28;20055;-62
2023/04/14 10:03:48;;;;;;;0.00;0.00;;;11.90;63.70;;;;;;4950786;28;20074;-62
2023/04/14 10:06:15;;;;;;;0.00;0.00;;;11.90;65.60;;;;;;4950817;28;20055;-63
2023/04/14 10:08:45;;;;;;;0.00;0.00;;;12.00;65.00;;;;;;4951223;28;20078;-63
2023/04/14 10:11:36;;;;;;;0.00;0.00;;;12.00;64.00;;;;;;4950965;28;20114;-63
2023/04/14 10:14:04;;;;;;;0.20;0.20;;;12.10;65.00;;;;;;4951292;28;20039;-62
2023/04/14 10:16:30;;;;;;;0.00;0.00;;;12.20;65.40;;;;;;4952052;28;20047;-62
2023/04/14 10:18:57;;;;;;;0.00;0.00;;;12.20;66.70;;;;;;4951966;29;20050;-63
2023/04/14 10:21:23;;;;;;;0.00;0.00;;;12.20;63.80;;;;;;4952147;28;20055;-63
2023/04/14 10:23:50;;;;;;;0.00;0.00;;;12.30;63.40;;;;;;4952137;29;20126;-63
2023/04/14 10:26:16;;;;;;;0.10;0.10;;;12.40;62.80;;;;;;4952057;28;20039;-63
2023/04/14 10:28:52;;;;;;;0.00;0.00;;;12.50;64.40;;;;;;4951879;28;20601;-63
2023/04/14 10:31:22;;;;;;;0.00;0.00;;;12.50;63.80;;;;;;4951834;28;20051;-64
2023/04/14 10:33:48;;;;;;;0.00;0.00;;;12.60;62.80;;;;;;4951981;28;20500;-64
2023/04/14 10:36:23;;;;;;;0.00;0.00;;;12.60;63.00;;;;;;4952029;29;20039;-64
2023/04/14 10:38:49;;;;;;;0.00;0.00;;;12.60;64.80;;;;;;4934935;29;20097;-62
2023/04/14 10:41:14;;;;;;;0.00;0.00;;;12.60;63.80;;;;;;4951641;28;20918;-63
2023/04/14 10:43:40;;;;;;;0.00;0.00;;;12.60;63.90;;;;;;4951631;28;20152;-63
2023/04/14 10:46:08;;;;;;;0.00;0.00;;;12.40;60.20;;;;;;4951841;28;20054;-64
2023/04/14 10:48:37;;;;;;;0.00;0.00;;;12.50;63.20;;;;;;4934708;28;20051;-63
2023/04/14 10:51:08;;;;;;;0.13;0.13;;;12.50;62.50;;;;;;4951478;28;20047;-63
2023/04/14 10:53:49;;;;;;;0.00;0.00;;;12.70;61.10;;;;;;4951647;28;20079;-63
2023/04/14 10:56:15;;;;;;;0.00;0.00;;;12.80;59.30;;;;;;4951812;28;20047;-63
2023/04/14 10:58:52;;;;;;;0.20;0.20;;;13.00;59.90;;;;;;4951133;28;20529;-63
2023/04/14 11:01:30;;;;;;;0.00;0.00;;;13.10;59.90;;;;;;4934450;28;20047;-63
2023/04/14 11:04:19;;;;;;;0.13;0.10;;;13.20;60.70;;;;;;4951511;28;20098;-63
2023/04/14 11:06:49;;;;;;;0.00;0.00;;;13.40;61.50;;;;;;4951288;28;20504;-63
2023/04/14 11:09:26;;;;;;;0.00;0.00;;;13.60;61.00;;;;;;4951600;28;20051;-63
2023/04/14 11:11:55;;;;;;;0.00;0.00;;;13.60;61.40;;;;;;4951390;28;20047;-64
2023/04/14 11:14:30;;;;;;;0.00;0.00;;;13.60;62.40;;;;;;4934583;29;20409;-63
2023/04/14 11:17:03;;;;;;;0.00;0.00;;;13.60;61.70;;;;;;4934365;29;20051;-63
2023/04/14 11:19:30;;;;;;;0.00;0.00;;;13.60;60.60;;;;;;4934148;29;20051;-63
2023/04/14 11:21:56;;;;;;;0.00;0.00;;;13.60;59.00;;;;;;4918292;29;20499;-63
2023/04/14 11:24:22;;;;;;;0.00;0.00;;;13.60;61.30;;;;;;4951816;28;20051;-63
2023/04/14 11:26:51;;;;;;;0.00;0.00;;;13.50;61.80;;;;;;4951120;28;20130;-63
2023/04/14 11:29:17;;;;;;;0.00;0.00;;;13.50;62.10;;;;;;4951305;28;20054;-63
2023/04/14 11:31:43;;;;;;;0.00;0.00;;;13.60;61.90;;;;;;4951107;28;20043;-63
2023/04/14 11:34:08;;;;;;;2.28;1.02;;;13.70;60.00;;;;;;4951206;28;20042;-63
2023/04/14 11:36:38;;;;;;;0.00;0.00;;;13.80;60.00;;;;;;4950090;28;20102;-64
2023/04/14 11:39:06;;;;;;;0.00;0.00;;;13.90;61.50;;;;;;4951288;29;20412;-63
2023/04/14 11:41:32;;;;;;;0.00;0.00;;;13.90;61.00;;;;;;4949660;28;20048;-63
2023/04/14 11:43:58;;;;;;;0.00;0.00;;;13.80;57.70;;;;;;4949836;28;20126;-63
2023/04/14 11:46:24;;;;;;;0.00;0.00;;;13.90;59.90;;;;;;4950153;28;20127;-63
2023/04/14 11:48:54;;;;;;;0.00;0.00;;;13.90;56.10;;;;;;4939834;28;20047;-62
2023/04/14 11:51:20;;;;;;;0.00;0.00;;;14.00;60.00;;;;;;4961705;28;20045;-63
2023/04/14 11:53:45;;;;;;;0.00;0.00;;;14.10;59.40;;;;;;4962618;28;20043;-63
2023/04/14 11:56:11;;;;;;;0.00;0.00;;;14.30;57.00;;;;;;4958966;28;20070;-63
2023/04/14 11:58:37;;;;;;;0.00;0.00;;;14.40;55.40;;;;;;4951438;28;20079;-63
2023/04/14 12:01:03;;;;;;;0.00;0.00;;;14.30;53.70;;;;;;4954811;28;20081;-63
2023/04/14 12:03:31;;;;;;;0.00;0.00;;;14.30;53.30;;;;;;4962967;28;20047;-63
2023/04/14 12:05:58;;;;;;;0.00;0.00;;;14.30;54.90;;;;;;4954893;28;20130;-63
2023/04/14 12:08:24;;;;;;;0.45;0.45;;;14.30;53.80;;;;;;4954766;28;20046;-63
2023/04/14 12:10:50;;;;;;;0.05;0.05;;;14.40;52.40;;;;;;4940651;28;20058;-63
2023/04/14 12:13:18;;;;;;;0.00;0.00;;;14.40;54.70;;;;;;4939386;28;20047;-63
2023/04/14 12:15:45;;;;;;;0.00;0.00;;;14.50;56.60;;;;;;4969187;28;20130;-63
2023/04/14 12:18:13;;;;;;;0.00;0.00;;;14.50;55.10;;;;;;4966972;28;20047;-63
2023/04/14 12:20:50;;;;;;;0.22;0.22;;;14.60;57.30;;;;;;4955067;28;20159;-63
2023/04/14 12:23:15;;;;;;;0.03;0.03;;;14.60;55.40;;;;;;4966470;28;20415;-62
2023/04/14 12:25:41;;;;;;;0.00;0.00;;;14.60;56.50;;;;;;4961429;28;20047;-63
2023/04/14 12:28:07;;;;;;;0.00;0.00;;;14.60;57.50;;;;;;4949893;28;20063;-63
2023/04/14 12:30:36;;;;;;;0.00;0.00;;;14.50;58.60;;;;;;4969849;28;20526;-63
2023/04/14 12:33:12;;;;;;;0.00;0.00;;;14.40;56.60;;;;;;4970259;28;20047;-63
2023/04/14 12:35:39;;;;;;;0.00;0.00;;;14.40;56.60;;;;;;4971628;28;20683;-63
2023/04/14 12:38:12;;;;;;;0.00;0.00;;;14.60;57.90;;;;;;4968538;28;20050;-63
2023/04/14 12:40:44;;;;;;;0.00;0.00;;;14.80;55.80;;;;;;4963710;28;20049;-64
2023/04/14 12:43:10;;;;;;;0.00;0.00;;;14.80;53.80;;;;;;4971014;28;20059;-63
2023/04/14 12:45:54;;;;;;;0.00;0.00;;;15.00;53.10;;;;;;4971168;28;20041;-63
2023/04/14 12:48:21;;;;;;;0.00;0.00;;;15.00;53.00;;;;;;4966227;28;20141;-63
2023/04/14 12:50:46;;;;;;;0.00;0.00;;;15.00;56.20;;;;;;4954575;28;20051;-63
2023/04/14 12:53:26;;;;;;;0.00;0.00;;;15.00;57.70;;;;;;4953199;28;20171;-63
2023/04/14 12:56:16;;;;;;;0.00;0.00;;;15.00;52.50;;;;;;4969664;28;20046;-64